createdAt,value
2019-01-21T00:00:42.679Z,-6.16
2019-01-21T00:03:14.497Z,-6.18
2019-01-21T00:05:39.440Z,-6.21
2019-01-21T00:08:08.722Z,-6.25
2019-01-21T00:10:38.043Z,-6.29
2019-01-21T00:13:07.287Z,-6.38
2019-01-21T00:15:36.698Z,-6.45
2019-01-21T00:18:05.926Z,-6.55
2019-01-21T00:20:35.248Z,-6.56
2019-01-21T00:23:04.633Z,-6.56
2019-01-21T00:25:33.968Z,-6.55
2019-01-21T00:28:03.238Z,-6.56
2019-01-21T00:30:32.550Z,-6.55
2019-01-21T00:33:01.840Z,-6.55
2019-01-21T00:35:31.167Z,-6.54
2019-01-21T00:38:00.394Z,-6.53
2019-01-21T00:40:29.870Z,-6.54
2019-01-21T00:42:59.239Z,-6.54
2019-01-21T00:45:28.616Z,-6.51
2019-01-21T00:47:57.880Z,-6.57
2019-01-21T00:50:27.116Z,-6.59
2019-01-21T00:52:56.389Z,-6.60
2019-01-21T00:55:25.680Z,-6.62
2019-01-21T00:57:54.972Z,-6.59
2019-01-21T01:00:25.674Z,-6.61
2019-01-21T01:02:54.946Z,-6.60
2019-01-21T01:05:24.257Z,-6.59
2019-01-21T01:07:53.471Z,-6.60
2019-01-21T01:10:22.735Z,-6.60
2019-01-21T01:12:52.004Z,-6.58
2019-01-21T01:15:21.283Z,-6.55
2019-01-21T01:17:50.593Z,-6.60
2019-01-21T01:20:21.108Z,-6.60
2019-01-21T01:22:50.655Z,-6.60
2019-01-21T01:25:19.948Z,-6.61
2019-01-21T01:27:49.243Z,-6.60
2019-01-21T01:30:18.516Z,-6.63
2019-01-21T01:32:47.848Z,-6.64
2019-01-21T01:35:17.475Z,-6.61
2019-01-21T01:37:46.738Z,-6.59
2019-01-21T01:40:20.050Z,-6.59
2019-01-21T01:42:49.681Z,-6.61
2019-01-21T01:45:23.770Z,-6.66
2019-01-21T01:48:11.092Z,-6.72
2019-01-21T01:50:40.368Z,-6.77
2019-01-21T01:53:09.709Z,-6.76
2019-01-21T01:55:39.097Z,-6.80
2019-01-21T01:58:08.424Z,-6.82
2019-01-21T02:00:37.640Z,-6.84
2019-01-21T02:03:06.917Z,-6.87
2019-01-21T02:05:36.307Z,-6.89
2019-01-21T02:08:05.561Z,-6.89
2019-01-21T02:10:34.926Z,-6.93
2019-01-21T02:13:04.191Z,-6.97
2019-01-21T02:15:33.511Z,-6.99
2019-01-21T02:18:02.772Z,-7.00
2019-01-21T02:20:32.115Z,-7.03
2019-01-21T02:23:04.351Z,-7.09
2019-01-21T02:25:54.561Z,-7.10
2019-01-21T02:28:38.010Z,-7.12
2019-01-21T02:32:07.006Z,-7.16
2019-01-21T02:34:45.247Z,-7.20
2019-01-21T02:37:30.501Z,-7.24
2019-01-21T02:41:06.031Z,-7.30
2019-01-21T02:43:44.513Z,-7.34
2019-01-21T02:46:39.446Z,-7.41
2019-01-21T02:49:36.113Z,-7.49
2019-01-21T02:52:32.983Z,-7.62
2019-01-21T02:55:20.174Z,-7.67
2019-01-21T02:58:21.319Z,-7.70
2019-01-21T03:01:16.924Z,-7.69
2019-01-21T03:04:14.963Z,-7.68
2019-01-21T03:06:59.258Z,-7.72
2019-01-21T03:10:13.331Z,-7.77
2019-01-21T03:13:14.758Z,-7.78
2019-01-21T03:16:11.426Z,-7.78
2019-01-21T03:19:18.700Z,-7.79
2019-01-21T03:22:34.981Z,-7.77
2019-01-21T03:25:41.684Z,-7.78
2019-01-21T03:28:51.640Z,-7.84
2019-01-21T03:31:38.094Z,-7.86
2019-01-21T03:34:17.256Z,-7.85
2019-01-21T03:37:13.673Z,-7.86
2019-01-21T03:40:23.129Z,-7.86
2019-01-21T03:43:37.777Z,-7.91
2019-01-21T03:46:30.520Z,-7.87
2019-01-21T03:49:08.339Z,-7.86
2019-01-21T03:52:18.024Z,-7.82
2019-01-21T03:54:58.376Z,-7.82
2019-01-21T03:57:37.638Z,-7.79
2019-01-21T04:00:44.752Z,-7.76
2019-01-21T04:03:52.737Z,-7.69
2019-01-21T04:06:58.692Z,-7.66
2019-01-21T04:10:12.650Z,-7.63
2019-01-21T04:13:32.427Z,-7.62
2019-01-21T04:16:30.524Z,-7.58
2019-01-21T04:19:21.516Z,-7.52
2019-01-21T04:22:22.444Z,-7.48
2019-01-21T04:25:36.130Z,-7.46
2019-01-21T04:28:11.728Z,-7.39
2019-01-21T04:31:09.668Z,-7.35
2019-01-21T04:34:17.421Z,-7.31
2019-01-21T04:37:19.574Z,-7.31
2019-01-21T04:40:11.391Z,-7.31
2019-01-21T04:43:04.951Z,-7.32
2019-01-21T04:46:04.696Z,-7.33
2019-01-21T04:48:53.310Z,-7.46
2019-01-21T04:51:38.512Z,-7.57
2019-01-21T04:54:44.660Z,-7.57
2019-01-21T04:57:37.004Z,-7.56
2019-01-21T05:01:02.793Z,-7.52
2019-01-21T05:04:12.694Z,-7.51
2019-01-21T05:07:01.937Z,-7.52
2019-01-21T05:10:22.064Z,-7.54
2019-01-21T05:13:32.130Z,-7.55
2019-01-21T05:16:28.871Z,-7.57
2019-01-21T05:19:11.058Z,-7.57
2019-01-21T05:22:19.572Z,-7.58
2019-01-21T05:25:39.174Z,-7.60
2019-01-21T05:28:34.767Z,-7.63
2019-01-21T05:31:45.564Z,-7.67
2019-01-21T05:34:42.203Z,-7.67
2019-01-21T05:37:32.279Z,-7.67
2019-01-21T05:40:11.625Z,-7.66
2019-01-21T05:43:03.443Z,-7.67
2019-01-21T05:46:08.919Z,-7.67
2019-01-21T05:49:12.188Z,-7.64
2019-01-21T05:52:15.047Z,-7.60
2019-01-21T05:55:19.007Z,-7.57
2019-01-21T05:58:35.998Z,-7.44
2019-01-21T06:01:45.734Z,-7.31
2019-01-21T06:04:45.582Z,-7.16
2019-01-21T06:07:41.114Z,-7.01
2019-01-21T06:10:38.855Z,-6.82
2019-01-21T06:13:58.968Z,-6.69
2019-01-21T06:16:50.178Z,-6.58
2019-01-21T06:20:02.183Z,-6.48
2019-01-21T06:23:14.969Z,-6.44
2019-01-21T06:26:02.928Z,-6.34
2019-01-21T06:29:16.187Z,-6.28
2019-01-21T06:32:27.158Z,-6.22
2019-01-21T06:35:29.822Z,-6.21
2019-01-21T06:38:25.162Z,-6.18
2019-01-21T06:41:33.242Z,-6.17
2019-01-21T06:44:32.055Z,-6.16
2019-01-21T06:47:58.257Z,-6.15
2019-01-21T06:50:58.296Z,-6.14
2019-01-21T06:53:55.043Z,-6.10
2019-01-21T06:57:12.816Z,-6.08
2019-01-21T07:00:14.905Z,-6.10
2019-01-21T07:03:27.680Z,-6.11
2019-01-21T07:06:37.667Z,-6.09
2019-01-21T07:09:30.994Z,-6.11
2019-01-21T07:12:48.535Z,-6.11
2019-01-21T07:15:57.986Z,-6.11
2019-01-21T07:19:18.162Z,-6.10
2019-01-21T07:22:29.138Z,-6.11
2019-01-21T07:25:46.450Z,-6.11
2019-01-21T07:28:44.110Z,-6.13
2019-01-21T07:31:56.958Z,-6.14
2019-01-21T07:35:07.921Z,-5.96
2019-01-21T07:38:16.067Z,-5.81
2019-01-21T07:41:06.834Z,-5.83
2019-01-21T07:44:19.234Z,-5.83
2019-01-21T07:47:35.927Z,-5.77
2019-01-21T07:50:45.576Z,-5.73
2019-01-21T07:54:00.174Z,-5.67
2019-01-21T07:56:55.109Z,-5.57
2019-01-21T07:59:46.186Z,-5.46
2019-01-21T08:02:49.073Z,-5.39
2019-01-21T08:05:55.892Z,-5.31
2019-01-21T08:08:50.112Z,-5.21
2019-01-21T08:11:52.817Z,-5.11
2019-01-21T08:14:40.787Z,-5.03
2019-01-21T08:17:54.626Z,-4.94
2019-01-21T08:21:17.362Z,-4.46
2019-01-21T08:24:24.926Z,-3.57
2019-01-21T08:27:24.564Z,-3.05
2019-01-21T08:30:37.324Z,-3.30
2019-01-21T08:33:55.043Z,-3.62
2019-01-21T08:36:38.701Z,-3.59
2019-01-21T08:40:01.534Z,-3.50
2019-01-21T08:43:15.238Z,-3.52
2019-01-21T08:46:22.404Z,-3.70
2019-01-21T08:49:14.987Z,-3.73
2019-01-21T08:52:23.134Z,-3.64
2019-01-21T08:55:26.860Z,-3.77
2019-01-21T08:58:27.084Z,-3.79
2019-01-21T09:01:42.760Z,-3.78
2019-01-21T09:05:27.769Z,-3.90
2019-01-21T09:08:37.585Z,-3.94
2019-01-21T09:12:05.574Z,-3.96
2019-01-21T09:15:08.926Z,-3.92
2019-01-21T09:18:17.104Z,-3.83
2019-01-21T09:21:40.520Z,-3.92
2019-01-21T09:25:01.458Z,-3.94
2019-01-21T09:27:55.922Z,-3.90
2019-01-21T09:30:59.744Z,-3.82
2019-01-21T09:34:21.358Z,-3.72
2019-01-21T09:37:37.158Z,-3.72
2019-01-21T09:40:54.564Z,-3.69
2019-01-21T09:43:51.656Z,-3.63
2019-01-21T09:46:44.460Z,-3.54
2019-01-21T09:49:12.775Z,-3.46
2019-01-21T09:52:05.083Z,-3.43
2019-01-21T09:54:32.938Z,-3.31
2019-01-21T09:57:04.761Z,-3.29
2019-01-21T09:59:34.416Z,-3.24
2019-01-21T10:02:06.526Z,-3.27
2019-01-21T10:04:39.723Z,-3.22
2019-01-21T10:07:44.960Z,-3.17
2019-01-21T10:10:33.144Z,-3.11
2019-01-21T10:13:49.960Z,-3.06
2019-01-21T10:17:12.590Z,-3.00
2019-01-21T10:20:28.464Z,-2.97
2019-01-21T10:23:42.290Z,-2.96
2019-01-21T10:27:17.509Z,-2.97
2019-01-21T10:30:37.318Z,-2.95
2019-01-21T10:33:50.393Z,-2.81
2019-01-21T10:36:57.714Z,-2.72
2019-01-21T10:40:23.301Z,-2.69
2019-01-21T10:43:16.379Z,-2.56
2019-01-21T10:46:01.746Z,-2.42
2019-01-21T10:49:24.884Z,-2.35
2019-01-21T10:52:38.734Z,-2.31
2019-01-21T10:55:45.784Z,-2.09
2019-01-21T10:59:05.602Z,-1.92
2019-01-21T11:01:53.442Z,-1.86
2019-01-21T11:04:42.906Z,-1.81
2019-01-21T11:07:39.580Z,-1.72
2019-01-21T11:10:32.798Z,-1.68
2019-01-21T11:13:41.500Z,-1.73
2019-01-21T11:16:41.856Z,-1.67
2019-01-21T11:19:53.670Z,-1.56
2019-01-21T11:22:48.124Z,-1.48
2019-01-21T11:25:46.044Z,-1.37
2019-01-21T11:29:02.369Z,-1.33
2019-01-21T11:32:17.927Z,-1.32
2019-01-21T11:35:03.488Z,-1.20
2019-01-21T11:38:11.319Z,-0.61
2019-01-21T11:41:11.688Z,0.32
2019-01-21T11:44:04.173Z,1.03
2019-01-21T11:46:57.350Z,1.99
2019-01-21T11:50:10.628Z,2.51
2019-01-21T11:53:11.726Z,3.12
2019-01-21T11:56:22.635Z,3.52
2019-01-21T11:59:32.445Z,3.99
2019-01-21T12:03:04.749Z,5.04
2019-01-21T12:06:04.428Z,3.77
2019-01-21T12:09:02.630Z,3.95
2019-01-21T12:11:43.267Z,4.19
2019-01-21T12:14:50.286Z,4.40
2019-01-21T12:17:52.014Z,4.71
2019-01-21T12:20:54.844Z,4.79
2019-01-21T12:23:36.170Z,4.26
2019-01-21T12:26:37.820Z,4.46
2019-01-21T12:29:22.255Z,4.11
2019-01-21T12:32:39.526Z,4.19
2019-01-21T12:35:33.792Z,4.17
2019-01-21T12:38:54.082Z,3.55
2019-01-21T12:42:07.198Z,3.49
2019-01-21T12:45:18.619Z,3.09
2019-01-21T12:48:35.685Z,3.16
2019-01-21T12:51:46.758Z,3.50
2019-01-21T12:54:59.458Z,4.22
2019-01-21T12:58:09.711Z,4.99
2019-01-21T13:01:00.440Z,5.34
2019-01-21T13:04:16.746Z,6.01
2019-01-21T13:07:20.497Z,6.23
2019-01-21T13:10:39.651Z,5.89
2019-01-21T13:14:02.666Z,4.72
2019-01-21T13:17:26.216Z,3.91
2019-01-21T13:20:10.745Z,4.61
2019-01-21T13:23:03.030Z,4.39
2019-01-21T13:26:12.912Z,4.48
2019-01-21T13:28:47.513Z,4.28
2019-01-21T13:31:30.560Z,4.31
2019-01-21T13:34:18.052Z,4.71
2019-01-21T13:37:24.874Z,4.60
2019-01-21T13:40:30.684Z,4.90
2019-01-21T13:43:10.959Z,5.76
2019-01-21T13:46:21.714Z,5.86
2019-01-21T13:49:16.638Z,5.79
2019-01-21T13:52:36.394Z,5.93
2019-01-21T13:55:39.688Z,6.62
2019-01-21T13:58:50.796Z,6.54
2019-01-21T14:01:30.459Z,6.54
2019-01-21T14:04:31.288Z,5.46
2019-01-21T14:07:26.924Z,5.46
2019-01-21T14:10:29.486Z,5.59
2019-01-21T14:13:40.285Z,5.75
2019-01-21T14:17:00.235Z,5.17
2019-01-21T14:20:16.623Z,4.82
2019-01-21T14:23:14.506Z,5.66
2019-01-21T14:26:24.806Z,5.64
2019-01-21T14:29:22.546Z,5.85
2019-01-21T14:32:16.416Z,5.88
2019-01-21T14:35:17.086Z,5.53
2019-01-21T14:38:55.572Z,5.53
2019-01-21T14:42:10.781Z,5.82
2019-01-21T14:45:31.680Z,5.82
2019-01-21T14:48:54.707Z,5.76
2019-01-21T14:52:00.508Z,5.11
2019-01-21T14:54:50.101Z,5.14
2019-01-21T14:58:15.641Z,4.69
2019-01-21T15:01:26.277Z,4.04
2019-01-21T15:04:52.839Z,3.14
2019-01-21T15:07:54.125Z,2.39
2019-01-21T15:11:02.257Z,1.98
2019-01-21T15:13:51.924Z,1.64
2019-01-21T15:17:04.663Z,1.22
2019-01-21T15:20:01.287Z,1.01
2019-01-21T15:23:30.536Z,0.73
2019-01-21T15:26:50.657Z,0.39
2019-01-21T15:30:03.988Z,0.03
2019-01-21T15:32:54.017Z,-0.29
2019-01-21T15:36:00.521Z,-0.47
2019-01-21T15:39:11.834Z,-0.61
2019-01-21T15:42:14.779Z,-0.76
2019-01-21T15:45:40.924Z,-0.88
2019-01-21T15:48:41.856Z,-1.01
2019-01-21T15:51:25.926Z,-1.13
2019-01-21T15:54:30.606Z,-1.23
2019-01-21T15:57:27.552Z,-1.32
2019-01-21T16:00:33.310Z,-1.39
2019-01-21T16:03:53.766Z,-1.46
2019-01-21T16:06:52.707Z,-1.48
2019-01-21T16:09:46.650Z,-1.51
2019-01-21T16:13:10.507Z,-1.55
2019-01-21T16:16:16.533Z,-1.61
2019-01-21T16:19:08.217Z,-1.67
2019-01-21T16:22:18.234Z,-1.71
2019-01-21T16:25:21.755Z,-1.75
2019-01-21T16:28:35.608Z,-1.82
2019-01-21T16:31:19.216Z,-1.88
2019-01-21T16:34:25.210Z,-1.94
2019-01-21T16:37:13.097Z,-1.96
2019-01-21T16:40:23.689Z,-2.04
2019-01-21T16:42:53.056Z,-2.08
2019-01-21T16:45:22.414Z,-2.12
2019-01-21T16:47:51.654Z,-2.13
2019-01-21T16:50:20.996Z,-2.14
2019-01-21T16:52:50.283Z,-2.16
2019-01-21T16:55:19.615Z,-2.19
2019-01-21T16:57:49.008Z,-2.23
2019-01-21T17:00:18.371Z,-2.27
2019-01-21T17:02:47.891Z,-2.28
2019-01-21T17:05:17.299Z,-2.28
2019-01-21T17:07:46.673Z,-2.26
2019-01-21T17:10:15.976Z,-2.24
2019-01-21T17:12:45.442Z,-2.22
2019-01-21T17:15:14.803Z,-2.25
2019-01-21T17:17:44.406Z,-2.26
2019-01-21T17:20:16.975Z,-2.26
2019-01-21T17:22:46.340Z,-2.23
2019-01-21T17:25:15.738Z,-2.22
2019-01-21T17:27:45.134Z,-2.22
2019-01-21T17:30:15.404Z,-2.22
2019-01-21T17:32:44.712Z,-2.20
2019-01-21T17:35:14.343Z,-2.17
2019-01-21T17:37:43.651Z,-2.14
2019-01-21T17:40:17.269Z,-2.11
2019-01-21T17:42:46.560Z,-2.10
2019-01-21T17:45:17.723Z,-2.09
2019-01-21T17:47:46.979Z,-2.06
2019-01-21T17:50:17.127Z,-2.00
2019-01-21T17:52:46.484Z,-1.99
2019-01-21T17:55:16.039Z,-1.97
2019-01-21T17:57:45.316Z,-1.95
2019-01-21T18:00:17.199Z,-1.95
2019-01-21T18:02:46.581Z,-1.93
2019-01-21T18:05:16.585Z,-1.92
2019-01-21T18:07:45.302Z,-1.91
2019-01-21T18:10:15.761Z,-1.90
2019-01-21T18:12:45.081Z,-1.91
2019-01-21T18:15:14.539Z,-1.93
2019-01-21T18:17:43.877Z,-1.94
2019-01-21T18:20:18.859Z,-1.94
2019-01-21T18:22:48.189Z,-1.92
2019-01-21T18:25:17.508Z,-1.91
2019-01-21T18:27:49.722Z,-1.90
2019-01-21T18:30:24.792Z,-1.92
2019-01-21T18:32:54.090Z,-1.88
2019-01-21T18:35:23.471Z,-1.87
2019-01-21T18:37:52.843Z,-1.84
2019-01-21T18:40:22.585Z,-1.84
2019-01-21T18:42:51.998Z,-1.81
2019-01-21T18:45:26.392Z,-1.73
2019-01-21T18:47:55.863Z,-1.72
2019-01-21T18:50:25.222Z,-1.73
2019-01-21T18:52:54.884Z,-1.67
2019-01-21T18:55:24.320Z,-1.67
2019-01-21T18:57:56.006Z,-1.67
2019-01-21T19:00:24.628Z,-1.70
2019-01-21T19:02:54.086Z,-1.71
2019-01-21T19:05:23.387Z,-1.76
2019-01-21T19:07:53.743Z,-1.81
2019-01-21T19:10:21.991Z,-1.86
2019-01-21T19:12:52.000Z,-1.89
2019-01-21T19:15:24.226Z,-1.91
2019-01-21T19:17:53.521Z,-1.90
2019-01-21T19:20:22.907Z,-1.88
2019-01-21T19:22:52.167Z,-2.13
2019-01-21T19:25:21.596Z,-1.95
2019-01-21T19:27:50.995Z,-1.90
2019-01-21T19:30:25.033Z,-1.87
2019-01-21T19:32:54.812Z,-1.87
2019-01-21T19:35:29.567Z,-1.85
2019-01-21T19:37:58.890Z,-1.86
2019-01-21T19:40:28.256Z,-1.87
2019-01-21T19:42:57.648Z,-1.87
2019-01-21T19:45:27.073Z,-1.85
2019-01-21T19:47:56.398Z,-1.82
2019-01-21T19:50:25.761Z,-1.79
2019-01-21T19:52:55.038Z,-1.76
2019-01-21T19:55:43.739Z,-1.74
2019-01-21T19:58:13.478Z,-1.73
2019-01-21T20:00:42.803Z,-1.73
2019-01-21T20:03:12.085Z,-1.74
2019-01-21T20:05:41.451Z,-1.73
2019-01-21T20:08:10.744Z,-1.74
2019-01-21T20:10:40.151Z,-1.72
2019-01-21T20:13:09.439Z,-1.73
2019-01-21T20:15:38.805Z,-1.72
2019-01-21T20:18:08.389Z,-1.72
2019-01-21T20:20:39.813Z,-1.70
2019-01-21T20:23:09.224Z,-1.70
2019-01-21T20:25:38.611Z,-1.68
2019-01-21T20:28:08.014Z,-1.67
2019-01-21T20:30:37.418Z,-1.66
2019-01-21T20:33:06.737Z,-1.66
2019-01-21T20:35:36.052Z,-1.66
2019-01-21T20:38:05.640Z,-1.65
2019-01-21T20:40:34.975Z,-1.64
2019-01-21T20:43:04.337Z,-1.65
2019-01-21T20:45:33.775Z,-1.64
2019-01-21T20:48:03.153Z,-1.63
2019-01-21T20:50:32.616Z,-1.58
2019-01-21T20:53:02.076Z,-1.60
2019-01-21T20:55:31.827Z,-1.59
2019-01-21T20:58:01.183Z,-1.58
2019-01-21T21:00:30.880Z,-1.54
2019-01-21T21:03:00.389Z,-1.52
2019-01-21T21:05:29.863Z,-1.52
2019-01-21T21:07:59.265Z,-1.50
2019-01-21T21:10:28.639Z,-1.50
2019-01-21T21:13:01.014Z,-1.48
2019-01-21T21:15:34.942Z,-1.46
2019-01-21T21:18:01.843Z,-1.45
2019-01-21T21:20:31.268Z,-1.43
2019-01-21T21:23:00.613Z,-1.44
2019-01-21T21:25:29.997Z,-1.44
2019-01-21T21:28:00.017Z,-1.40
2019-01-21T21:30:31.261Z,-1.41
2019-01-21T21:33:00.629Z,-1.37
2019-01-21T21:35:29.987Z,-1.37
2019-01-21T21:37:59.402Z,-1.36
2019-01-21T21:40:28.800Z,-1.37
2019-01-21T21:42:58.209Z,-1.35
2019-01-21T21:45:27.955Z,-1.34
2019-01-21T21:48:00.805Z,-1.34
2019-01-21T21:50:28.713Z,-1.47
2019-01-21T21:52:58.042Z,-1.31
2019-01-21T21:55:27.499Z,-1.31
2019-01-21T21:57:57.524Z,-1.33
2019-01-21T22:00:27.421Z,-1.35
2019-01-21T22:02:56.777Z,-1.36
2019-01-21T22:05:26.148Z,-1.38
2019-01-21T22:07:55.535Z,-1.33
2019-01-21T22:10:26.774Z,-1.25
2019-01-21T22:12:56.191Z,-1.20
2019-01-21T22:15:26.550Z,-1.23
2019-01-21T22:17:56.035Z,-1.26
2019-01-21T22:20:25.702Z,-1.26
2019-01-21T22:22:55.014Z,-1.26
2019-01-21T22:25:24.501Z,-1.26
2019-01-21T22:27:53.887Z,-1.24
2019-01-21T22:30:27.862Z,-1.26
2019-01-21T22:32:54.711Z,-1.30
2019-01-21T22:35:24.235Z,-1.31
2019-01-21T22:37:53.550Z,-1.30
2019-01-21T22:40:27.291Z,-1.31
2019-01-21T22:42:56.573Z,-1.33
2019-01-21T22:45:25.901Z,-1.35
2019-01-21T22:47:55.172Z,-1.35
2019-01-21T22:50:24.474Z,-1.35
2019-01-21T22:52:56.894Z,-1.35
2019-01-21T22:55:31.520Z,-1.36
2019-01-21T22:58:00.793Z,-1.36
2019-01-21T23:00:54.881Z,-1.32
2019-01-21T23:03:24.978Z,-1.31
2019-01-21T23:05:54.244Z,-1.28
2019-01-21T23:08:23.500Z,-1.28
2019-01-21T23:10:52.838Z,-1.29
2019-01-21T23:13:22.188Z,-1.34
2019-01-21T23:15:51.490Z,-1.36
2019-01-21T23:18:20.898Z,-1.37
2019-01-21T23:20:50.269Z,-1.39
2019-01-21T23:23:19.589Z,-1.41
2019-01-21T23:25:49.299Z,-1.40
2019-01-21T23:28:18.604Z,-1.39
2019-01-21T23:30:47.873Z,-1.42
2019-01-21T23:33:17.157Z,-1.43
2019-01-21T23:35:46.514Z,-1.42
2019-01-21T23:38:15.929Z,-1.44
2019-01-21T23:40:45.201Z,-1.43
2019-01-21T23:43:14.494Z,-1.44
2019-01-21T23:45:43.772Z,-1.44
2019-01-21T23:48:13.136Z,-1.43
2019-01-21T23:50:42.404Z,-1.45
2019-01-21T23:53:11.727Z,-1.48
2019-01-21T23:55:41.018Z,-1.47
2019-01-21T23:58:10.367Z,-1.51
